Time;durP1;ratioP1;P1;durP2;ratioP2;P2;SDS_P1;SDS_P2;PMS_P1;PMS_P2;Temp;Humidity;BMP_temperature;BMP_pressure;BME280_temperature;BME280_humidity;BME280_pressure;Samples;Min_cycle;Max_cycle;Signal;HPM_P1;HPM_P2
2022/04/30 00:02:01;;;;;;;4.38;0.45;;;;;;;7.08;61.90;102422.75;4852732;29;20057;-76
2022/04/30 00:04:26;;;;;;;0.70;0.43;;;;;;;7.12;62.18;102423.34;4860511;29;20041;-76
2022/04/30 00:06:52;;;;;;;1.20;0.30;;;;;;;7.18;62.54;102431.66;4859937;29;20041;-76
2022/04/30 00:09:17;;;;;;;1.00;0.30;;;;;;;7.17;62.52;102429.13;4844466;29;20040;-76
2022/04/30 00:11:43;;;;;;;2.15;0.50;;;;;;;7.13;62.76;102427.72;4859644;29;20465;-76
2022/04/30 00:14:08;;;;;;;3.70;0.40;;;;;;;6.99;63.16;102416.41;4861992;29;20048;-76
2022/04/30 00:16:33;;;;;;;2.38;0.40;;;;;;;7.07;62.78;102424.59;4867230;29;20041;-76
2022/04/30 00:18:59;;;;;;;0.80;0.30;;;;;;;7.05;62.82;102423.03;4853476;29;20061;-76
2022/04/30 00:21:24;;;;;;;0.75;0.22;;;;;;;6.84;62.51;102391.00;4863493;29;20044;-76
2022/04/30 00:23:49;;;;;;;0.80;0.40;;;;;;;7.01;62.65;102424.28;4862994;29;20029;-76
2022/04/30 00:26:15;;;;;;;1.38;0.32;;;;;;;6.92;62.83;102409.91;4864318;29;20088;-76
2022/04/30 00:28:41;;;;;;;1.55;0.55;;;;;;;6.97;62.43;102410.34;4861840;29;20122;-76
2022/04/30 00:31:06;;;;;;;3.75;0.40;;;;;;;6.95;62.60;102422.16;4866728;29;20085;-76
2022/04/30 00:33:32;;;;;;;0.95;0.50;;;;;;;6.88;62.62;102410.31;4861743;29;20380;-76
2022/04/30 00:35:59;;;;;;;0.85;0.45;;;;;;;6.90;62.84;102414.53;4862120;29;20112;-76
2022/04/30 00:38:25;;;;;;;1.20;0.40;;;;;;;6.83;62.90;102403.53;4862035;29;20456;-76
2022/04/30 00:40:51;;;;;;;0.90;0.40;;;;;;;6.87;63.25;102413.97;4864546;29;20117;-76
2022/04/30 00:43:17;;;;;;;1.60;0.45;;;;;;;6.83;63.17;102416.06;4847252;29;20033;-76
2022/04/30 00:45:49;;;;;;;1.45;0.38;;;;;;;6.78;63.63;102420.97;4863184;29;20044;-76
2022/04/30 00:48:16;;;;;;;1.15;0.30;;;;;;;6.64;64.02;102400.78;4862737;29;20029;-76
2022/04/30 00:50:41;;;;;;;1.77;0.30;;;;;;;6.68;63.75;102412.91;4863032;29;20026;-76
2022/04/30 00:53:08;;;;;;;2.28;0.47;;;;;;;6.66;63.89;102417.56;4846939;29;20038;-76
2022/04/30 00:55:36;;;;;;;1.02;0.32;;;;;;;6.54;63.93;102398.06;4866327;29;20060;-76
2022/04/30 00:58:05;;;;;;;0.70;0.40;;;;;;;6.49;64.31;102391.41;4866271;29;20032;-77
2022/04/30 01:00:30;;;;;;;0.70;0.40;;;;;;;6.62;64.13;102415.25;4862425;29;20025;-76
2022/04/30 01:02:56;;;;;;;1.00;0.38;;;;;;;6.64;63.77;102408.81;4861345;29;20037;-76
2022/04/30 01:05:22;;;;;;;0.80;0.40;;;;;;;6.52;63.45;102381.31;4861202;29;20052;-76
2022/04/30 01:07:47;;;;;;;2.10;0.50;;;;;;;6.38;64.42;102354.91;4861301;29;20038;-76
2022/04/30 01:10:13;;;;;;;1.50;0.32;;;;;;;6.59;65.36;102403.03;4846438;29;20138;-76
2022/04/30 01:12:39;;;;;;;1.02;0.50;;;;;;;6.50;66.15;102398.47;4860159;29;20029;-76
2022/04/30 01:15:06;;;;;;;1.15;0.40;;;;;;;6.44;66.60;102405.19;4847175;29;20037;-76
2022/04/30 01:17:32;;;;;;;1.13;0.40;;;;;;;6.33;66.63;102392.75;4861872;29;20044;-76
2022/04/30 01:19:58;;;;;;;2.05;0.35;;;;;;;6.40;66.88;102400.25;4859004;29;20017;-76
2022/04/30 01:22:29;;;;;;;1.23;0.45;;;;;;;6.26;67.23;102382.72;4862562;29;20053;-76
2022/04/30 01:24:57;;;;;;;0.80;0.30;;;;;;;6.28;67.47;102394.13;4860554;29;20116;-76
2022/04/30 01:27:26;;;;;;;0.50;0.40;;;;;;;6.26;67.35;102404.13;4861580;29;20468;-76
2022/04/30 01:30:01;;;;;;;0.77;0.40;;;;;;;6.16;68.58;102392.50;4860996;29;20029;-76
2022/04/30 01:38:01;;;;;;;2.63;0.40;;;;;;;5.93;70.02;102381.97;4863763;29;20120;-76
2022/04/30 01:40:29;;;;;;;2.05;0.30;;;;;;;5.90;70.24;102387.53;4864161;29;20042;-76
2022/04/30 01:42:58;;;;;;;0.73;0.30;;;;;;;5.74;69.84;102361.25;4860241;29;20067;-76
2022/04/30 01:45:24;;;;;;;1.95;0.52;;;;;;;5.68;69.72;102352.91;4862416;29;20061;-77
2022/04/30 01:47:51;;;;;;;1.42;0.43;;;;;;;5.79;70.43;102371.53;4862572;29;20041;-76
2022/04/30 01:50:16;;;;;;;1.30;0.43;;;;;;;5.71;70.47;102361.50;4861817;29;20044;-76
2022/04/30 01:52:43;;;;;;;0.70;0.40;;;;;;;5.89;70.27;102380.47;4863344;29;20037;-76
2022/04/30 01:55:09;;;;;;;0.93;0.50;;;;;;;5.88;70.08;102373.44;4846187;29;20033;-76
2022/04/30 01:57:38;;;;;;;0.55;0.30;;;;;;;5.93;69.82;102389.97;4862316;29;20400;-76
2022/04/30 02:00:06;;;;;;;0.65;0.35;;;;;;;5.57;69.92;102338.63;4860390;29;20033;-76
2022/04/30 02:02:36;;;;;;;3.80;0.55;;;;;;;5.87;70.53;102385.13;4860558;29;20044;-76
2022/04/30 02:05:07;;;;;;;1.00;0.40;;;;;;;5.84;70.88;102385.38;4861316;29;20112;-76
2022/04/30 02:07:37;;;;;;;3.30;0.50;;;;;;;5.77;71.44;102387.72;4860386;29;20057;-76
2022/04/30 02:10:02;;;;;;;0.70;0.40;;;;;;;5.63;71.09;102380.00;4866620;29;20025;-77
2022/04/30 02:12:31;;;;;;;0.82;0.40;;;;;;;5.31;71.96;102321.28;4859382;29;20061;-76
2022/04/30 02:14:57;;;;;;;4.03;0.47;;;;;;;5.74;71.77;102387.97;4874908;29;20090;-76
2022/04/30 02:17:25;;;;;;;1.58;0.40;;;;;;;5.65;71.80;102381.56;4860894;29;20033;-76
2022/04/30 02:22:38;;;;;;;;;;;;;;;5.69;72.18;102383.97;4862814;29;20084;-76
2022/04/30 02:25:09;;;;;;;0.98;0.32;;;;;;;5.63;72.22;102372.84;4859767;29;19924;-76
2022/04/30 02:27:37;;;;;;;1.55;0.50;;;;;;;5.72;72.73;102384.56;4861254;29;20054;-76
2022/04/30 02:30:06;;;;;;;3.65;0.60;;;;;;;5.72;72.32;102378.38;4845062;29;20120;-76
2022/04/30 02:32:39;;;;;;;1.60;0.30;;;;;;;5.34;72.67;102315.69;4860726;29;20048;-76
2022/04/30 02:35:06;;;;;;;0.98;0.50;;;;;;;5.61;73.16;102365.94;4861381;29;20033;-76
2022/04/30 02:37:32;;;;;;;1.40;0.45;;;;;;;5.69;73.52;102378.63;4860351;29;20326;-76
2022/04/30 02:39:58;;;;;;;1.30;0.57;;;;;;;5.74;73.21;102381.78;4830236;29;20051;-76
2022/04/30 02:42:23;;;;;;;1.42;0.50;;;;;;;5.64;72.80;102355.84;4842461;29;20034;-76
2022/04/30 02:44:48;;;;;;;0.73;0.35;;;;;;;5.77;72.54;102371.69;4859689;29;20117;-76
2022/04/30 02:47:14;;;;;;;0.47;0.30;;;;;;;5.84;72.49;102377.34;4862789;29;20093;-76
2022/04/30 02:49:39;;;;;;;3.72;0.50;;;;;;;5.84;71.94;102380.03;4861500;29;20033;-77
2022/04/30 02:52:05;;;;;;;1.88;0.52;;;;;;;5.88;71.53;102376.13;4845615;29;20048;-76
2022/04/30 02:54:34;;;;;;;2.38;0.60;;;;;;;5.85;71.72;102369.19;4866078;29;20033;-76
2022/04/30 02:56:59;;;;;;;2.67;0.50;;;;;;;5.83;72.18;102365.81;4860968;29;20045;-76
2022/04/30 03:02:08;;;;;;;0.57;0.35;;;;;;;5.72;72.91;102362.34;4860589;29;20518;-76
2022/04/30 03:04:34;;;;;;;1.15;0.35;;;;;;;5.73;72.54;102364.03;4861974;29;20065;-76
2022/04/30 03:06:59;;;;;;;0.60;0.20;;;;;;;5.23;72.18;102289.03;4860486;29;20041;-76
2022/04/30 03:09:24;;;;;;;0.73;0.40;;;;;;;5.63;72.38;102367.50;4860031;29;20042;-76
2022/04/30 03:11:50;;;;;;;2.15;0.43;;;;;;;5.55;72.55;102353.94;4859718;29;20052;-76
2022/04/30 03:14:15;;;;;;;3.45;0.43;;;;;;;5.63;72.85;102370.19;4859902;29;20040;-76
2022/04/30 03:22:10;;;;;;;3.45;0.40;;;;;;;5.61;71.99;102373.94;4865717;29;20081;-76
2022/04/30 03:24:35;;;;;;;1.00;0.40;;;;;;;5.47;72.01;102343.06;4859884;29;20065;-76
2022/04/30 03:27:01;;;;;;;2.97;0.40;;;;;;;5.59;72.28;102373.22;4859690;29;20448;-76
2022/04/30 03:29:26;;;;;;;0.50;0.30;;;;;;;5.13;71.83;102288.94;4859613;29;20070;-76
2022/04/30 03:31:52;;;;;;;0.70;0.40;;;;;;;5.44;72.21;102345.97;4825626;29;20512;-76
2022/04/30 03:34:18;;;;;;;0.63;0.30;;;;;;;5.40;71.98;102347.22;4856767;29;20038;-76
2022/04/30 03:36:49;;;;;;;1.90;0.40;;;;;;;5.47;71.87;102361.75;4843556;29;20105;-76
2022/04/30 03:39:14;;;;;;;0.75;0.40;;;;;;;5.44;72.09;102366.50;4860418;29;20073;-76
2022/04/30 03:41:40;;;;;;;1.20;0.60;;;;;;;5.32;71.74;102347.84;4844579;29;20057;-76
2022/04/30 03:44:07;;;;;;;1.08;0.40;;;;;;;5.44;72.15;102363.81;4857483;29;20040;-76
2022/04/30 03:46:33;;;;;;;1.08;0.47;;;;;;;5.43;72.30;102357.66;4860950;29;20071;-76
2022/04/30 03:49:00;;;;;;;2.13;0.70;;;;;;;5.35;71.85;102349.41;4857755;29;20057;-76
2022/04/30 03:51:25;;;;;;;0.65;0.40;;;;;;;5.41;71.05;102351.56;4844394;29;20066;-76
2022/04/30 03:53:53;;;;;;;1.52;0.40;;;;;;;5.33;70.91;102333.53;4877854;29;20037;-76
2022/04/30 03:56:19;;;;;;;1.10;0.47;;;;;;;5.58;70.72;102352.84;4846272;29;20041;-76
2022/04/30 03:58:48;;;;;;;1.05;0.32;;;;;;;5.83;69.87;102371.16;4876509;29;20041;-76
2022/04/30 04:01:14;;;;;;;1.05;0.43;;;;;;;6.14;68.65;102368.59;4864296;29;20029;-76
2022/04/30 04:03:40;;;;;;;0.75;0.50;;;;;;;6.70;66.73;102365.47;4864886;29;20556;-76
2022/04/30 04:06:07;;;;;;;1.13;0.52;;;;;;;7.54;64.32;102365.91;4871981;29;20027;-76
2022/04/30 04:08:35;;;;;;;1.10;0.57;;;;;;;8.26;61.44;102355.63;4868302;29;20085;-76
2022/04/30 04:11:01;;;;;;;3.00;0.60;;;;;;;8.87;59.32;102359.63;4866471;29;20080;-76
2022/04/30 04:18:55;;;;;;;1.73;0.40;;;;;;;10.00;55.87;102363.56;4863713;29;20124;-76
2022/04/30 04:21:22;;;;;;;0.52;0.40;;;;;;;10.23;55.22;102354.00;4863539;29;20041;-75
2022/04/30 04:26:33;;;;;;;1.55;0.43;;;;;;;10.73;53.17;102364.03;4863886;29;20053;-76
2022/04/30 04:28:58;;;;;;;3.03;0.60;;;;;;;10.96;52.27;102358.03;4861877;29;20033;-76
2022/04/30 04:31:23;;;;;;;0.93;0.43;;;;;;;10.92;51.95;102365.59;4863416;29;20029;-76
2022/04/30 04:33:49;;;;;;;0.98;0.40;;;;;;;10.84;51.40;102362.06;4867549;29;20060;-76
2022/04/30 04:36:16;;;;;;;0.90;0.50;;;;;;;10.81;50.86;102357.84;4863192;29;20058;-76
2022/04/30 04:38:42;;;;;;;0.75;0.40;;;;;;;10.44;50.50;102312.44;4862411;29;20516;-76
2022/04/30 04:41:08;;;;;;;2.13;0.50;;;;;;;10.42;50.58;102339.47;4862159;29;20037;-76
2022/04/30 04:43:34;;;;;;;0.93;0.50;;;;;;;10.50;49.92;102355.69;4862798;29;20448;-76
2022/04/30 04:46:01;;;;;;;5.53;0.60;;;;;;;10.37;50.28;102355.28;4862585;29;20129;-76
2022/04/30 04:48:26;;;;;;;0.63;0.30;;;;;;;10.71;49.04;102363.34;4862004;29;20431;-76
2022/04/30 04:50:51;;;;;;;2.08;0.50;;;;;;;10.43;49.49;102359.16;4861741;29;20093;-76
2022/04/30 04:53:17;;;;;;;0.80;0.40;;;;;;;10.82;48.59;102354.97;4846433;29;20064;-76
2022/04/30 04:55:42;;;;;;;0.52;0.30;;;;;;;10.72;48.77;102362.34;4860316;29;20045;-76
2022/04/30 04:58:08;;;;;;;1.10;0.60;;;;;;;11.14;47.53;102364.16;4843841;29;20085;-76
2022/04/30 05:00:33;;;;;;;3.03;0.40;;;;;;;11.55;46.78;102364.22;4845039;29;20026;-76
2022/04/30 05:02:59;;;;;;;2.25;0.50;;;;;;;11.34;46.39;102361.19;4847634;29;20069;-76
2022/04/30 05:05:24;;;;;;;1.98;0.50;;;;;;;11.62;45.88;102351.78;4862988;29;20049;-76
2022/04/30 05:07:50;;;;;;;2.03;0.45;;;;;;;11.89;45.55;102371.38;4846953;29;20047;-76
2022/04/30 05:10:15;;;;;;;1.42;0.50;;;;;;;12.19;44.78;102348.22;4860089;29;20048;-77
2022/04/30 05:12:43;;;;;;;0.93;0.32;;;;;;;12.33;44.44;102354.75;4847076;29;20129;-79
2022/04/30 05:15:08;;;;;;;0.70;0.40;;;;;;;11.80;45.39;102356.16;4860412;29;20101;-77
2022/04/30 05:17:34;;;;;;;0.88;0.40;;;;;;;11.98;45.14;102357.66;4846567;29;20125;-78
2022/04/30 05:19:59;;;;;;;1.35;0.52;;;;;;;11.88;45.38;102365.09;4861977;29;20034;-77
2022/04/30 05:22:24;;;;;;;0.65;0.40;;;;;;;10.39;48.85;102358.63;4861491;29;20070;-78
2022/04/30 05:24:50;;;;;;;5.85;0.68;;;;;;;9.81;50.95;102360.09;4846318;29;20049;-78
2022/04/30 05:27:15;;;;;;;0.70;0.30;;;;;;;9.75;52.34;102366.06;4862213;29;20033;-78
2022/04/30 05:29:40;;;;;;;1.20;0.50;;;;;;;9.87;52.65;102355.94;4863722;29;20040;-79
2022/04/30 05:32:06;;;;;;;1.83;0.60;;;;;;;10.04;53.07;102362.28;4867237;29;20044;-80
2022/04/30 05:34:32;;;;;;;1.10;0.38;;;;;;;10.23;52.76;102367.44;4853123;29;20034;-79
2022/04/30 05:36:57;;;;;;;2.38;0.50;;;;;;;9.98;52.64;102362.91;4847566;29;20069;-79
2022/04/30 05:39:23;;;;;;;1.42;0.47;;;;;;;9.88;52.27;102366.53;4861272;29;20037;-79
2022/04/30 05:41:48;;;;;;;0.95;0.40;;;;;;;9.86;52.51;102367.66;4862679;29;20448;-78
2022/04/30 05:44:13;;;;;;;1.42;0.60;;;;;;;9.94;52.43;102359.69;4845384;29;20125;-79
2022/04/30 05:46:39;;;;;;;0.82;0.50;;;;;;;9.96;52.44;102364.88;4861753;29;20029;-79
2022/04/30 05:49:04;;;;;;;1.25;0.50;;;;;;;10.09;53.29;102378.75;4863175;29;20057;-79
2022/04/30 05:51:29;;;;;;;1.30;0.50;;;;;;;10.26;52.66;102380.59;4878713;29;20026;-80
2022/04/30 05:53:57;;;;;;;2.88;0.47;;;;;;;10.31;53.30;102380.97;4862026;29;20117;-78
2022/04/30 05:56:22;;;;;;;1.75;0.55;;;;;;;10.19;52.71;102382.19;4859138;29;20029;-80
2022/04/30 05:58:48;;;;;;;1.77;0.50;;;;;;;9.94;53.06;102370.44;4861323;29;20051;-78
2022/04/30 06:01:13;;;;;;;1.77;0.38;;;;;;;9.98;53.92;102384.41;4861481;29;20041;-79
2022/04/30 06:03:39;;;;;;;0.73;0.30;;;;;;;9.99;53.29;102369.94;4861569;29;20039;-79
2022/04/30 06:06:05;;;;;;;1.67;0.50;;;;;;;9.93;53.41;102355.28;4862625;29;20029;-79
2022/04/30 06:08:31;;;;;;;1.00;0.50;;;;;;;10.04;53.25;102354.22;4860827;29;20108;-79
2022/04/30 06:10:57;;;;;;;1.10;0.45;;;;;;;10.25;53.24;102365.44;4861580;29;20475;-79
2022/04/30 06:13:23;;;;;;;0.60;0.40;;;;;;;10.30;53.03;102381.16;4860023;29;20041;-79
2022/04/30 06:15:49;;;;;;;3.25;0.50;;;;;;;10.29;53.01;102384.81;4860473;29;20037;-79
2022/04/30 06:18:16;;;;;;;2.05;0.40;;;;;;;10.11;52.77;102360.63;4864306;29;20057;-79
2022/04/30 06:20:41;;;;;;;7.15;0.50;;;;;;;10.18;52.78;102379.69;4874259;29;20029;-79
2022/04/30 06:23:07;;;;;;;1.13;0.45;;;;;;;10.34;52.55;102364.50;4844190;29;20033;-78
2022/04/30 06:25:32;;;;;;;3.10;0.68;;;;;;;10.41;53.19;102377.34;4860930;29;20045;-78
2022/04/30 06:28:01;;;;;;;1.60;0.55;;;;;;;10.30;53.70;102375.75;4860271;29;20097;-79
2022/04/30 06:30:26;;;;;;;2.28;0.60;;;;;;;10.80;52.77;102375.84;4853671;29;20034;-79
2022/04/30 06:32:53;;;;;;;1.85;0.68;;;;;;;10.59;53.68;102351.16;4859720;29;20376;-79
2022/04/30 06:35:18;;;;;;;0.95;0.40;;;;;;;10.62;54.13;102375.06;4844199;29;20033;-78
2022/04/30 06:37:45;;;;;;;1.48;0.47;;;;;;;10.60;53.66;102366.34;4844996;29;20033;-81
2022/04/30 06:40:12;;;;;;;0.95;0.52;;;;;;;10.73;53.76;102345.19;4843106;29;20437;-80
2022/04/30 06:42:46;;;;;;;1.33;0.57;;;;;;;11.22;53.00;102360.63;4860348;29;20033;-78
2022/04/30 06:45:13;;;;;;;0.77;0.43;;;;;;;10.99;53.28;102376.56;4859804;29;20029;-79
2022/04/30 06:47:40;;;;;;;1.05;0.60;;;;;;;10.96;52.88;102376.88;4860137;29;20037;-79
2022/04/30 06:50:07;;;;;;;1.05;0.60;;;;;;;11.12;53.22;102358.09;4859942;29;20037;-80
2022/04/30 06:52:33;;;;;;;1.50;0.63;;;;;;;11.21;52.27;102373.28;4858573;29;20034;-80
2022/04/30 06:57:45;;;;;;;1.23;0.70;;;;;;;11.55;51.48;102366.91;4859917;29;20047;-79
2022/04/30 07:02:55;;;;;;;1.23;0.63;;;;;;;11.24;52.01;102358.63;4859619;29;20360;-78
2022/04/30 07:05:22;;;;;;;1.83;0.70;;;;;;;11.32;52.96;102347.00;4859313;29;20041;-79
2022/04/30 07:07:48;;;;;;;1.20;0.65;;;;;;;11.42;52.22;102370.13;4856253;29;20045;-78
2022/04/30 07:10:14;;;;;;;1.75;0.60;;;;;;;11.55;51.76;102372.31;4865020;29;20029;-82
2022/04/30 07:12:40;;;;;;;1.60;0.77;;;;;;;11.42;52.31;102369.25;4860844;29;20049;-80
2022/04/30 07:15:06;;;;;;;0.90;0.70;;;;;;;11.50;52.48;102364.72;4859059;29;20665;-79
2022/04/30 07:17:31;;;;;;;0.88;0.50;;;;;;;11.76;51.58;102364.59;4856144;29;20479;-78
2022/04/30 07:19:58;;;;;;;2.17;0.65;;;;;;;11.81;51.15;102363.22;4857127;29;20061;-79
2022/04/30 07:22:24;;;;;;;0.88;0.50;;;;;;;11.91;50.43;102366.63;4860589;29;20136;-78
2022/04/30 07:24:51;;;;;;;2.13;0.60;;;;;;;11.98;50.13;102346.03;4860333;29;20137;-78
2022/04/30 07:27:16;;;;;;;1.73;0.63;;;;;;;11.95;49.17;102340.97;4845173;29;20089;-79
2022/04/30 07:29:41;;;;;;;5.30;0.60;;;;;;;12.20;48.39;102360.69;4859096;29;20041;-78
2022/04/30 07:32:08;;;;;;;1.02;0.60;;;;;;;12.17;50.08;102363.72;4842769;29;20030;-79
2022/04/30 07:34:36;;;;;;;2.47;0.80;;;;;;;12.12;50.55;102348.06;4857936;29;20045;-79
2022/04/30 07:37:03;;;;;;;1.98;0.70;;;;;;;12.21;50.38;102357.81;4859569;29;20068;-79
2022/04/30 07:39:28;;;;;;;1.10;0.70;;;;;;;12.01;49.85;102364.59;4842372;29;20030;-79
2022/04/30 07:41:54;;;;;;;2.03;0.60;;;;;;;12.01;50.90;102364.59;4859668;29;20045;-78
2022/04/30 07:44:20;;;;;;;1.65;0.60;;;;;;;12.05;50.94;102343.50;4859948;29;20499;-79
2022/04/30 07:46:46;;;;;;;1.33;0.63;;;;;;;12.05;51.05;102363.22;4859931;29;20106;-79
2022/04/30 07:49:11;;;;;;;1.00;0.50;;;;;;;11.96;50.18;102351.63;4858273;29;20057;-82
2022/04/30 07:51:52;;;;;;;2.08;0.60;;;;;;;11.79;51.33;102340.97;4856752;29;20504;-78
2022/04/30 07:54:18;;;;;;;0.85;0.52;;;;;;;11.93;54.50;102367.31;4864260;29;20041;-79
2022/04/30 07:56:43;;;;;;;5.90;0.57;;;;;;;11.96;55.09;102358.88;4861587;29;20453;-79
2022/04/30 07:59:09;;;;;;;0.90;0.52;;;;;;;12.16;54.61;102364.75;4860711;29;20674;-79
2022/04/30 08:01:34;;;;;;;3.88;0.65;;;;;;;12.25;52.11;102352.94;4858295;29;20033;-79
2022/04/30 08:04:00;;;;;;;1.20;0.60;;;;;;;12.23;50.87;102350.38;4860562;29;20125;-79
2022/04/30 08:06:25;;;;;;;3.05;0.73;;;;;;;12.13;50.88;102333.53;4828746;29;20082;-79
2022/04/30 08:08:50;;;;;;;1.10;0.60;;;;;;;12.14;50.85;102324.44;4860065;29;20033;-79
2022/04/30 08:11:16;;;;;;;2.20;0.80;;;;;;;12.38;51.71;102352.38;4860104;29;20038;-79
2022/04/30 08:13:42;;;;;;;2.40;0.50;;;;;;;12.22;51.12;102283.09;4849483;29;20037;-79
2022/04/30 08:16:09;;;;;;;0.73;0.40;;;;;;;12.64;48.54;102350.25;4863793;29;20033;-80
2022/04/30 08:18:36;;;;;;;2.60;0.68;;;;;;;12.75;46.63;102342.78;4871271;29;20037;-80
2022/04/30 08:21:04;;;;;;;3.33;0.75;;;;;;;12.93;47.31;102341.50;4846858;29;20033;-79
2022/04/30 08:23:29;;;;;;;2.05;0.50;;;;;;;13.25;45.13;102344.25;4860292;29;20373;-80
2022/04/30 08:25:55;;;;;;;1.52;0.30;;;;;;;13.61;43.57;102339.91;4863047;29;20097;-82
2022/04/30 08:28:20;;;;;;;0.57;0.30;;;;;;;13.72;42.44;102335.09;4845581;29;20041;-78
2022/04/30 08:30:45;;;;;;;0.60;0.30;;;;;;;13.65;42.38;102326.03;4858273;29;20116;-79
2022/04/30 08:33:11;;;;;;;0.90;0.35;;;;;;;13.70;41.19;102334.41;4846099;29;20041;-79
2022/04/30 08:35:36;;;;;;;2.47;0.47;;;;;;;13.88;41.53;102298.94;4826696;29;20094;-78
2022/04/30 08:38:01;;;;;;;1.33;0.30;;;;;;;14.17;40.23;102334.16;4842056;29;20049;-82
2022/04/30 08:40:27;;;;;;;1.02;0.35;;;;;;;14.18;40.50;102335.00;4869965;29;20037;-81
2022/04/30 08:42:52;;;;;;;0.93;0.45;;;;;;;14.24;40.25;102335.09;4865616;29;20033;-79
2022/04/30 08:45:21;;;;;;;0.80;0.40;;;;;;;14.42;39.43;102332.00;4864863;29;20412;-80
2022/04/30 08:47:47;;;;;;;1.75;0.50;;;;;;;14.37;39.54;102315.47;4866335;29;20061;-80
2022/04/30 08:50:15;;;;;;;1.90;0.43;;;;;;;14.28;39.55;102336.38;4867274;29;20033;-80
2022/04/30 08:52:41;;;;;;;1.05;0.30;;;;;;;14.26;39.29;102324.06;4851109;29;20044;-83
2022/04/30 09:13:15;;;;;;;2.20;0.40;;;;;;;13.86;38.46;102309.94;5155481;24;20065;-83
2022/04/30 09:15:46;;;;;;;1.70;0.30;;;;;;;14.07;38.88;102310.06;4898515;29;20359;-83
2022/04/30 09:18:13;;;;;;;1.23;0.40;;;;;;;14.12;38.79;102300.53;4901322;29;20032;-84
2022/04/30 09:20:54;;;;;;;0.82;0.30;;;;;;;14.22;39.33;102310.06;4902360;29;20028;-84
2022/04/30 09:23:24;;;;;;;2.03;0.40;;;;;;;14.07;38.76;102312.75;4903100;29;20013;-84
2022/04/30 09:25:55;;;;;;;1.45;0.38;;;;;;;14.00;39.46;102322.63;4903196;29;20040;-84
2022/04/30 09:28:27;;;;;;;0.98;0.30;;;;;;;13.90;40.49;102311.22;4903297;29;20101;-84
2022/04/30 09:31:11;;;;;;;0.77;0.28;;;;;;;14.13;39.36;102304.91;4903409;29;20036;-84
2022/04/30 09:33:43;;;;;;;;;;;;;;;14.22;38.84;102306.50;4903687;29;20109;-84
2022/04/30 09:38:54;;;;;;;1.92;0.50;;;;;;;13.62;44.33;102275.84;4890612;29;20032;-84
2022/04/30 09:41:24;;;;;;;0.82;0.40;;;;;;;13.60;45.61;102307.63;4903792;29;20065;-83
2022/04/30 09:44:01;;;;;;;1.00;0.32;;;;;;;13.29;43.50;102305.84;4901648;29;20085;-84
2022/04/30 09:46:28;;;;;;;1.48;0.50;;;;;;;13.25;47.38;102311.81;4892415;29;20069;-84
2022/04/30 09:54:26;;;;;;;1.80;0.60;;;;;;;13.21;53.21;102297.78;4898450;29;20562;-84
2022/04/30 09:56:53;;;;;;;1.98;0.63;;;;;;;13.13;53.51;102298.66;4902402;29;20116;-82
2022/04/30 09:59:22;;;;;;;1.33;0.45;;;;;;;12.97;51.88;102277.16;4903526;29;20069;-84
2022/04/30 10:01:48;;;;;;;1.02;0.50;;;;;;;12.97;53.72;102290.66;4904240;29;20061;-84
2022/04/30 10:04:15;;;;;;;1.40;1.10;;;;;;;12.87;51.08;102292.75;4903875;29;20027;-85
2022/04/30 10:09:17;;;;;;;0.93;0.50;;;;;;;12.72;54.79;102291.84;4877598;29;20110;-81
2022/04/30 10:12:01;;;;;;;1.85;0.65;;;;;;;11.26;57.51;102090.69;4876695;29;20030;-83
2022/04/30 10:14:33;;;;;;;1.08;0.63;;;;;;;12.46;57.00;102290.25;4882000;29;20053;-83
2022/04/30 10:17:16;;;;;;;1.35;0.57;;;;;;;11.24;57.41;102132.28;4884781;29;20017;-82
2022/04/30 10:20:05;;;;;;;2.35;0.50;;;;;;;11.49;60.12;102163.59;4879127;29;20026;-82
2022/04/30 10:22:30;;;;;;;1.70;0.60;;;;;;;12.14;59.63;102293.91;4881472;29;20508;-82
2022/04/30 10:24:58;;;;;;;2.50;0.60;;;;;;;11.98;59.05;102289.38;4879728;29;20033;-83
2022/04/30 10:27:36;;;;;;;1.73;0.60;;;;;;;11.90;62.10;102289.41;4872367;29;20052;-82
2022/04/30 10:30:02;;;;;;;1.55;0.63;;;;;;;11.83;68.53;102289.22;4869049;29;20033;-81
2022/04/30 10:32:35;;;;;;;4.95;0.77;;;;;;;11.76;71.69;102267.50;4871923;29;20025;-80
2022/04/30 10:35:03;;;;;;;2.10;0.70;;;;;;;11.74;73.59;102280.28;4878724;29;20021;-80
2022/04/30 10:37:38;;;;;;;2.13;0.70;;;;;;;11.95;72.45;102273.53;4866887;29;20077;-82
2022/04/30 10:40:22;;;;;;;2.17;0.77;;;;;;;12.25;70.74;102277.38;4874530;29;20057;-81
2022/04/30 10:42:47;;;;;;;3.95;0.85;;;;;;;12.32;68.82;102275.66;4876182;29;20029;-82
2022/04/30 10:45:16;;;;;;;1.60;0.70;;;;;;;12.38;71.08;102265.97;4882395;29;20033;-82
2022/04/30 10:47:51;;;;;;;1.15;0.70;;;;;;;12.21;71.60;102278.69;4863395;29;20093;-83
2022/04/30 10:50:17;;;;;;;3.22;0.70;;;;;;;12.17;70.14;102248.53;4884227;29;20010;-83
2022/04/30 10:52:46;;;;;;;3.50;0.80;;;;;;;12.36;70.82;102263.47;4881051;29;20040;-84
2022/04/30 10:55:14;;;;;;;2.75;0.88;;;;;;;12.31;71.66;102238.00;4883621;29;20053;-83
2022/04/30 10:57:41;;;;;;;2.50;0.90;;;;;;;12.36;70.89;102258.06;4883027;29;20554;-82
2022/04/30 11:00:07;;;;;;;1.40;0.70;;;;;;;12.40;68.90;102242.38;4864921;29;20041;-84
2022/04/30 11:02:33;;;;;;;1.60;0.80;;;;;;;12.46;65.82;102255.16;5395964;23;20037;-83
2022/04/30 11:04:59;;;;;;;1.08;0.60;;;;;;;12.53;63.14;102253.44;4865747;29;20048;-81
2022/04/30 11:07:27;;;;;;;3.22;0.80;;;;;;;12.65;61.46;102248.50;4882434;29;20029;-81
2022/04/30 11:09:52;;;;;;;1.15;0.60;;;;;;;12.75;60.43;102250.94;4881314;29;20013;-82
2022/04/30 11:12:18;;;;;;;2.53;0.50;;;;;;;12.80;59.74;102248.56;4864504;29;20132;-82
2022/04/30 11:14:49;;;;;;;1.27;0.68;;;;;;;11.94;62.85;102107.31;4980163;23;20061;-84
2022/04/30 11:17:15;;;;;;;0.90;0.50;;;;;;;11.44;62.64;102006.09;4882667;29;20022;-83
2022/04/30 11:19:42;;;;;;;1.23;0.68;;;;;;;12.35;62.41;102158.38;5313740;23;20120;-81
2022/04/30 11:22:09;;;;;;;1.13;0.63;;;;;;;12.45;60.83;102151.75;4901990;29;20024;-84
2022/04/30 11:24:38;;;;;;;0.85;0.40;;;;;;;11.82;59.15;102042.13;4899632;29;20097;-83
2022/04/30 11:27:06;;;;;;;2.90;0.60;;;;;;;11.49;60.00;102038.75;4900889;29;20008;-84
2022/04/30 11:29:33;;;;;;;1.35;0.55;;;;;;;11.42;58.88;102026.97;4898611;29;20069;-83
2022/04/30 11:31:59;;;;;;;1.58;0.65;;;;;;;11.82;61.99;102090.69;4894550;29;20029;-83
2022/04/30 11:34:25;;;;;;;2.63;0.77;;;;;;;11.27;60.53;101981.06;5021158;23;20061;-80
2022/04/30 11:36:54;;;;;;;1.38;0.30;;;;;;;12.41;60.35;102147.69;4900817;29;20021;-83
2022/04/30 11:39:21;;;;;;;5.03;0.50;;;;;;;12.85;58.70;102244.31;4897352;29;20088;-82
2022/04/30 11:41:51;;;;;;;2.83;0.50;;;;;;;11.70;58.44;102065.09;5341925;23;20072;-82
2022/04/30 11:44:18;;;;;;;0.85;0.50;;;;;;;11.11;60.23;101995.44;4865829;29;20046;-86
2022/04/30 12:46:33;;;;;;;0.93;0.37;;;;;;;10.89;64.57;101980.84;5898753;24;20217;31
2022/04/30 12:56:46;;;;;;;2.03;0.60;;;;;;;12.25;74.43;102227.91;5618352;23;20045;-85
2022/04/30 12:59:12;;;;;;;1.77;0.60;;;;;;;10.47;74.10;101932.66;4896894;29;20043;-84
2022/04/30 13:01:39;;;;;;;0.85;0.50;;;;;;;11.96;74.15;102170.88;5035827;23;20053;-84
2022/04/30 13:04:05;;;;;;;1.27;0.50;;;;;;;12.16;71.46;102198.28;4884599;29;20030;-84
2022/04/30 13:17:00;;;;;;;;;;;;;;;12.07;70.03;102185.00;4881976;29;20074;-81
2022/04/30 13:19:26;;;;;;;1.45;0.50;;;;;;;10.62;65.69;101976.69;4883080;29;19927;-82
2022/04/30 13:21:52;;;;;;;0.73;0.40;;;;;;;12.00;69.68;102209.13;4883766;29;20034;-85
2022/04/30 13:24:18;;;;;;;1.45;0.50;;;;;;;10.44;71.31;101915.00;5285243;23;20090;-83
2022/04/30 13:26:44;;;;;;;2.40;0.70;;;;;;;10.56;73.54;101921.72;4876512;23;20050;-84
2022/04/30 13:39:30;;;;;;;1.33;0.50;;;;;;;11.07;71.65;102015.66;5859374;23;20154;-82
2022/04/30 13:41:56;;;;;;;1.23;0.43;;;;;;;11.98;73.24;102171.53;4897514;29;20085;-86
2022/04/30 13:44:21;;;;;;;2.03;0.60;;;;;;;12.03;75.04;102172.88;4899883;29;20037;-85
2022/04/30 14:04:55;;;;;;;2.25;0.40;;;;;;;10.39;75.13;101917.34;5223462;23;20048;-86
2022/04/30 14:07:20;;;;;;;0.93;0.40;;;;;;;12.00;73.88;102174.06;5193621;23;20053;-85
2022/04/30 14:09:45;;;;;;;2.92;0.70;;;;;;;11.97;75.69;102155.53;4871506;29;20021;-84
2022/04/30 14:12:11;;;;;;;1.80;0.47;;;;;;;12.18;78.27;102177.34;4899172;29;20034;-82
2022/04/30 14:19:53;;;;;;;3.10;0.63;;;;;;;10.63;78.26;101904.84;4863633;29;20082;-83